Time,TemperatureF,DewpointF,PressureIn,WindDirection,WindDirectionDegrees,WindSpeedMPH,WindSpeedGustMPH,Humidity,HourlyPrecipIn,Conditions,Clouds,dailyrainin,SoftwareType,DateUTC
2013-02-07 00:03:00,19.8,3.3,23.59,SW,225,0.0,0.0,48,0.00,,---,0.00,VWS V14.01,2013-02-07 08:03:00,
2013-02-07 00:08:00,19.8,3.3,23.59,WSW,248,0.0,0.0,48,0.00,,---,0.00,VWS V14.01,2013-02-07 08:08:00,
2013-02-07 00:13:00,19.8,3.7,23.59,SW,225,1.1,2.5,49,0.00,,---,0.00,VWS V14.01,2013-02-07 08:13:00,
2013-02-07 00:18:00,19.6,3.5,23.59,WSW,248,1.6,1.6,49,0.00,,---,0.00,VWS V14.01,2013-02-07 08:18:00,
2013-02-07 00:23:00,19.4,4.2,23.59,WSW,248,1.3,1.3,51,0.00,,---,0.00,VWS V14.01,2013-02-07 08:23:00,
2013-02-07 00:28:00,19.4,4.2,23.59,SW,225,0.0,0.0,51,0.00,,---,0.00,VWS V14.01,2013-02-07 08:28:00,
2013-02-07 00:33:00,19.4,4.2,23.59,WSW,248,1.1,1.6,51,0.00,,---,0.00,VWS V14.01,2013-02-07 08:33:00,
2013-02-07 00:38:00,19.2,4.1,23.59,WSW,248,0.0,1.6,51,0.00,,---,0.00,VWS V14.01,2013-02-07 08:38:00,
2013-02-07 00:43:00,19.2,4.1,23.59,WSW,248,0.0,0.0,51,0.00,,---,0.00,VWS V14.01,2013-02-07 08:43:00,
2013-02-07 00:48:00,19.0,3.5,23.59,SW,225,0.0,0.0,50,0.00,,---,0.00,VWS V14.01,2013-02-07 08:48:00,
2013-02-07 00:53:00,19.0,3.5,23.59,WSW,248,0.0,0.0,50,0.00,,---,0.00,VWS V14.01,2013-02-07 08:53:00,
2013-02-07 00:58:00,18.9,3.7,23.59,WSW,248,0.0,0.0,51,0.00,,---,0.00,VWS V14.01,2013-02-07 08:58:00,
2013-02-07 01:03:00,18.7,3.6,23.59,WSW,248,0.0,0.0,51,0.00,,---,0.00,VWS V14.01,2013-02-07 09:03:00,
2013-02-07 01:08:00,18.7,4.0,23.59,SW,225,1.6,1.6,52,0.00,,---,0.00,VWS V14.01,2013-02-07 09:08:00,
2013-02-07 01:13:00,18.7,4.4,23.59,SW,225,1.3,1.6,53,0.00,,---,0.00,VWS V14.01,2013-02-07 09:13:00,
2013-02-07 01:18:00,18.7,4.4,23.59,SW,225,0.0,0.0,53,0.00,,---,0.00,VWS V14.01,2013-02-07 09:18:00,
2013-02-07 01:23:00,18.5,4.2,23.59,SW,225,0.0,0.9,53,0.00,,---,0.00,VWS V14.01,2013-02-07 09:23:00,
2013-02-07 01:28:00,18.5,4.2,23.59,WSW,248,0.0,0.0,53,0.00,,---,0.00,VWS V14.01,2013-02-07 09:28:00,
2013-02-07 01:33:00,18.3,4.1,23.59,WSW,248,0.0,0.0,53,0.00,,---,0.00,VWS V14.01,2013-02-07 09:33:00,
2013-02-07 01:38:00,18.3,4.1,23.59,WSW,248,0.0,0.0,53,0.00,,---,0.00,VWS V14.01,2013-02-07 09:38:00,
2013-02-07 01:43:00,18.1,4.3,23.59,SW,225,1.6,2.9,54,0.00,,---,0.00,VWS V14.01,2013-02-07 09:43:00,
2013-02-07 01:49:00,18.1,3.9,23.59,SW,225,1.6,2.7,53,0.00,,---,0.00,VWS V14.01,2013-02-07 09:49:00,
2013-02-07 01:54:00,18.0,3.3,23.59,WSW,248,1.3,1.3,52,0.00,,---,0.00,VWS V14.01,2013-02-07 09:54:00,
2013-02-07 01:59:00,18.1,3.9,23.59,West,270,1.1,2.5,53,0.00,,---,0.00,VWS V14.01,2013-02-07 09:59:00,
2013-02-07 02:04:00,18.3,4.1,23.59,SSW,202,3.1,3.1,53,0.00,,---,0.00,VWS V14.01,2013-02-07 10:04:00,
2013-02-07 02:09:00,18.7,4.4,23.59,SSW,202,1.6,2.9,53,0.00,,---,0.00,VWS V14.01,2013-02-07 10:09:00,
2013-02-07 02:14:00,19.0,5.1,23.59,WSW,248,2.2,3.1,54,0.00,,---,0.00,VWS V14.01,2013-02-07 10:14:00,
2013-02-07 02:19:00,19.4,5.5,23.59,West,270,1.3,2.5,54,0.00,,---,0.00,VWS V14.01,2013-02-07 10:19:00,
2013-02-07 02:24:00,19.4,5.5,23.59,WSW,248,1.6,2.5,54,0.00,,---,0.00,VWS V14.01,2013-02-07 10:24:00,
2013-02-07 02:29:00,19.6,5.7,23.59,WSW,248,2.7,2.7,54,0.00,,---,0.00,VWS V14.01,2013-02-07 10:29:00,
2013-02-07 02:34:00,19.4,5.5,23.59,SSW,202,2.0,2.9,54,0.00,,---,0.00,VWS V14.01,2013-02-07 10:34:00,
2013-02-07 02:39:00,19.2,5.3,23.59,SW,225,0.0,1.6,54,0.00,,---,0.00,VWS V14.01,2013-02-07 10:39:00,
2013-02-07 02:44:00,19.2,5.3,23.59,SSW,202,2.2,2.2,54,0.00,,---,0.00,VWS V14.01,2013-02-07 10:44:00,
2013-02-07 02:49:00,19.2,5.3,23.59,SW,225,1.1,1.6,54,0.00,,---,0.00,VWS V14.01,2013-02-07 10:49:00,
2013-02-07 02:54:00,19.0,5.1,23.59,WNW,292,0.0,2.2,54,0.00,,---,0.00,VWS V14.01,2013-02-07 10:54:00,
2013-02-07 02:59:00,19.0,5.1,23.59,SE,135,1.3,2.7,54,0.00,,---,0.00,VWS V14.01,2013-02-07 10:59:00,
2013-02-07 03:04:00,19.2,5.3,23.56,WSW,248,2.5,2.7,54,0.00,,---,0.00,VWS V14.01,2013-02-07 11:04:00,
2013-02-07 03:09:00,19.2,4.9,23.56,SSW,202,1.3,3.8,53,0.00,,---,0.00,VWS V14.01,2013-02-07 11:09:00,
2013-02-07 03:14:00,19.2,4.9,23.56,WSW,248,2.7,3.4,53,0.00,,---,0.00,VWS V14.01,2013-02-07 11:14:00,
2013-02-07 03:19:00,19.0,4.7,23.56,WSW,248,1.3,2.0,53,0.00,,---,0.00,VWS V14.01,2013-02-07 11:19:00,
2013-02-07 03:24:00,19.0,5.1,23.56,SSW,202,1.3,2.5,54,0.00,,---,0.00,VWS V14.01,2013-02-07 11:24:00,
2013-02-07 03:29:00,19.0,5.1,23.56,ESE,112,1.6,1.6,54,0.00,,---,0.00,VWS V14.01,2013-02-07 11:29:00,
2013-02-07 03:34:00,19.4,5.5,23.56,SSW,202,0.9,2.2,54,0.00,,---,0.00,VWS V14.01,2013-02-07 11:34:00,
2013-02-07 03:39:00,19.2,5.3,23.56,WSW,248,2.7,2.7,54,0.00,,---,0.00,VWS V14.01,2013-02-07 11:39:00,
2013-02-07 03:44:00,19.0,5.1,23.56,WSW,248,2.5,2.5,54,0.00,,---,0.00,VWS V14.01,2013-02-07 11:44:00,
2013-02-07 03:49:00,18.7,4.8,23.56,SSW,202,2.0,2.9,54,0.00,,---,0.00,VWS V14.01,2013-02-07 11:49:00,
2013-02-07 03:55:00,18.3,4.1,23.56,West,270,1.3,1.3,53,0.00,,---,0.00,VWS V14.01,2013-02-07 11:55:00,
2013-02-07 04:00:00,18.3,4.5,23.56,WNW,292,1.1,2.7,54,0.00,,---,0.00,VWS V14.01,2013-02-07 12:00:00,
2013-02-07 04:05:00,18.1,3.9,23.56,WSW,248,2.0,3.1,53,0.00,,---,0.00,VWS V14.01,2013-02-07 12:05:00,
2013-02-07 04:10:00,18.1,4.3,23.56,SSW,202,0.9,2.5,54,0.00,,---,0.00,VWS V14.01,2013-02-07 12:10:00,
2013-02-07 04:15:00,18.0,4.1,23.56,WSW,248,2.0,2.0,54,0.00,,---,0.00,VWS V14.01,2013-02-07 12:15:00,
2013-02-07 04:20:00,17.8,4.0,23.56,WNW,292,2.2,2.2,54,0.00,,---,0.00,VWS V14.01,2013-02-07 12:20:00,
2013-02-07 04:25:00,17.8,4.4,23.56,WSW,248,2.2,2.2,55,0.00,,---,0.00,VWS V14.01,2013-02-07 12:25:00,
2013-02-07 04:30:00,17.8,4.4,23.56,WSW,248,1.6,2.0,55,0.00,,---,0.00,VWS V14.01,2013-02-07 12:30:00,
2013-02-07 04:35:00,17.6,4.2,23.56,SW,225,2.0,2.0,55,0.00,,---,0.00,VWS V14.01,2013-02-07 12:35:00,
2013-02-07 04:40:00,17.4,4.0,23.56,SW,225,0.0,0.0,55,0.00,,---,0.00,VWS V14.01,2013-02-07 12:40:00,
2013-02-07 04:45:00,17.4,4.0,23.56,SSW,202,0.0,0.0,55,0.00,,---,0.00,VWS V14.01,2013-02-07 12:45:00,
2013-02-07 04:50:00,17.1,3.7,23.56,SW,225,2.2,2.2,55,0.00,,---,0.00,VWS V14.01,2013-02-07 12:50:00,
2013-02-07 04:55:00,16.9,3.5,23.56,WSW,248,2.5,2.5,55,0.00,,---,0.00,VWS V14.01,2013-02-07 12:55:00,
2013-02-07 05:00:00,16.9,3.9,23.56,WSW,248,3.1,3.1,56,0.00,,---,0.00,VWS V14.01,2013-02-07 13:00:00,
2013-02-07 05:06:00,16.7,3.7,23.53,SSW,202,0.0,2.5,56,0.00,,---,0.00,VWS V14.01,2013-02-07 13:06:00,
2013-02-07 05:11:00,16.5,3.2,23.53,NW,315,0.0,0.0,55,0.00,,---,0.00,VWS V14.01,2013-02-07 13:11:00,
2013-02-07 05:16:00,16.7,3.7,23.53,WSW,248,2.0,3.1,56,0.00,,---,0.00,VWS V14.01,2013-02-07 13:16:00,
2013-02-07 05:21:00,16.5,3.6,23.56,SSW,202,1.6,2.0,56,0.00,,---,0.00,VWS V14.01,2013-02-07 13:21:00,
2013-02-07 05:26:00,16.5,3.6,23.56,WSW,248,1.1,2.5,56,0.00,,---,0.00,VWS V14.01,2013-02-07 13:26:00,
2013-02-07 05:31:00,16.5,3.6,23.56,WSW,248,2.5,2.5,56,0.00,,---,0.00,VWS V14.01,2013-02-07 13:31:00,
2013-02-07 05:36:00,16.7,3.7,23.53,WSW,248,2.7,2.7,56,0.00,,---,0.00,VWS V14.01,2013-02-07 13:36:00,
2013-02-07 05:42:00,16.9,3.9,23.53,WSW,248,1.1,2.5,56,0.00,,---,0.00,VWS V14.01,2013-02-07 13:42:00,
2013-02-07 05:47:00,17.1,4.1,23.53,WSW,248,2.9,2.9,56,0.00,,---,0.00,VWS V14.01,2013-02-07 13:47:00,
2013-02-07 05:52:00,17.4,4.8,23.53,WSW,248,0.0,1.6,57,0.00,,---,0.00,VWS V14.01,2013-02-07 13:52:00,
2013-02-07 05:57:00,17.8,4.8,23.53,South,180,1.3,3.8,56,0.00,,---,0.00,VWS V14.01,2013-02-07 13:57:00,
2013-02-07 06:02:00,18.1,5.1,23.53,SSW,202,3.6,4.3,56,0.00,,---,0.00,VWS V14.01,2013-02-07 14:02:00,
2013-02-07 06:07:00,18.7,5.6,23.56,WSW,248,1.3,2.5,56,0.00,,---,0.00,VWS V14.01,2013-02-07 14:07:00,
2013-02-07 06:12:00,19.0,5.5,23.56,WSW,248,2.5,4.9,55,0.00,,---,0.00,VWS V14.01,2013-02-07 14:12:00,
2013-02-07 06:17:00,19.0,5.5,23.56,SSW,202,2.9,3.1,55,0.00,,---,0.00,VWS V14.01,2013-02-07 14:17:00,
2013-02-07 06:22:00,19.0,5.5,23.53,SSE,158,0.9,2.7,55,0.00,,---,0.00,VWS V14.01,2013-02-07 14:22:00,
2013-02-07 06:27:00,19.4,5.9,23.53,SSW,202,2.0,4.7,55,0.00,,---,0.00,VWS V14.01,2013-02-07 14:27:00,
2013-02-07 06:32:00,19.8,5.8,23.53,West,270,1.6,3.1,54,0.00,,---,0.00,VWS V14.01,2013-02-07 14:32:00,
2013-02-07 06:37:00,19.9,6.0,23.53,South,180,3.1,3.1,54,0.00,,---,0.00,VWS V14.01,2013-02-07 14:37:00,
2013-02-07 06:43:00,19.9,5.6,23.53,SSW,202,2.7,2.7,53,0.00,,---,0.00,VWS V14.01,2013-02-07 14:43:00,
2013-02-07 06:48:00,19.8,5.4,23.53,SSW,202,1.6,3.6,53,0.00,,---,0.00,VWS V14.01,2013-02-07 14:48:00,
2013-02-07 06:53:00,19.8,5.8,23.53,SSW,202,3.8,4.0,54,0.00,,---,0.00,VWS V14.01,2013-02-07 14:53:00,
2013-02-07 06:58:00,19.9,5.6,23.53,WSW,248,2.0,4.0,53,0.00,,---,0.00,VWS V14.01,2013-02-07 14:58:00,
2013-02-07 07:03:00,19.9,5.6,23.53,SW,225,2.2,3.1,53,0.00,,---,0.00,VWS V14.01,2013-02-07 15:03:00,
2013-02-07 07:08:00,19.9,5.6,23.53,WSW,248,1.3,2.5,53,0.00,,---,0.00,VWS V14.01,2013-02-07 15:08:00,
2013-02-07 07:14:00,19.8,5.4,23.53,SSW,202,2.7,3.6,53,0.00,,---,0.00,VWS V14.01,2013-02-07 15:14:00,
2013-02-07 07:19:00,19.9,5.6,23.53,SSW,202,3.6,3.6,53,0.00,,---,0.00,VWS V14.01,2013-02-07 15:19:00,
2013-02-07 07:25:00,20.3,5.9,23.53,SSW,202,0.9,2.5,53,0.00,,---,0.00,VWS V14.01,2013-02-07 15:25:00,
2013-02-07 07:30:00,20.7,6.7,23.53,SW,225,2.0,3.1,54,0.00,,---,0.00,VWS V14.01,2013-02-07 15:30:00,
2013-02-07 07:35:00,22.6,8.9,23.53,SW,225,2.7,3.6,55,0.00,,---,0.00,VWS V14.01,2013-02-07 15:35:00,
2013-02-07 07:41:00,24.4,10.6,23.53,WSW,248,2.2,3.6,55,0.00,,---,0.00,VWS V14.01,2013-02-07 15:41:00,
2013-02-07 07:46:00,25.9,11.1,23.53,SW,225,4.0,4.3,53,0.00,,---,0.00,VWS V14.01,2013-02-07 15:46:00,
2013-02-07 07:51:00,27.1,11.9,23.56,WSW,248,1.6,2.9,52,0.00,,---,0.00,VWS V14.01,2013-02-07 15:51:00,
2013-02-07 07:57:00,28.8,12.0,23.56,SSW,202,2.0,3.6,49,0.00,,---,0.00,VWS V14.01,2013-02-07 15:57:00,
2013-02-07 08:03:00,30.0,11.8,23.56,SSW,202,2.7,2.7,46,0.00,,---,0.00,VWS V14.01,2013-02-07 16:03:00,
2013-02-07 08:08:00,31.1,11.8,23.56,WSW,248,1.3,1.6,44,0.00,,---,0.00,VWS V14.01,2013-02-07 16:08:00,
2013-02-07 08:13:00,32.4,12.9,23.56,SSW,202,1.1,1.3,44,0.00,,---,0.00,VWS V14.01,2013-02-07 16:13:00,
2013-02-07 08:18:00,33.3,13.2,23.56,SSW,202,0.0,2.0,43,0.00,,---,0.00,VWS V14.01,2013-02-07 16:18:00,
2013-02-07 08:23:00,34.3,14.2,23.56,WSW,248,2.0,2.7,43,0.00,,---,0.00,VWS V14.01,2013-02-07 16:23:00,
2013-02-07 08:28:00,35.2,14.5,23.56,SSW,202,2.2,3.4,42,0.00,,---,0.00,VWS V14.01,2013-02-07 16:28:00,
2013-02-07 08:33:00,36.0,15.1,23.56,SW,225,4.0,4.3,42,0.00,,---,0.00,VWS V14.01,2013-02-07 16:33:00,
2013-02-07 08:38:00,37.0,15.5,23.56,SSW,202,4.0,4.0,41,0.00,,---,0.00,VWS V14.01,2013-02-07 16:38:00,
2013-02-07 08:43:00,38.7,16.4,23.56,SSW,202,4.0,6.3,40,0.00,,---,0.00,VWS V14.01,2013-02-07 16:43:00,
2013-02-07 08:48:00,39.6,16.7,23.56,ENE,68,2.7,4.7,39,0.00,,---,0.00,VWS V14.01,2013-02-07 16:48:00,
2013-02-07 08:53:00,40.3,17.3,23.56,SE,135,4.9,5.6,39,0.00,,---,0.00,VWS V14.01,2013-02-07 16:53:00,
2013-02-07 08:58:00,41.4,17.7,23.56,South,180,4.3,5.8,38,0.00,,---,0.00,VWS V14.01,2013-02-07 16:58:00,
2013-02-07 09:03:00,42.4,18.6,23.56,SSW,202,3.6,6.5,38,0.00,,---,0.00,VWS V14.01,2013-02-07 17:03:00,
2013-02-07 09:08:00,44.1,18.2,23.56,SW,225,10.7,10.7,35,0.00,,---,0.00,VWS V14.01,2013-02-07 17:08:00,
2013-02-07 09:13:00,45.3,17.9,23.56,WSW,248,5.4,9.6,33,0.00,,---,0.00,VWS V14.01,2013-02-07 17:13:00,
2013-02-07 09:18:00,46.0,17.1,23.56,WSW,248,5.6,8.7,31,0.00,,---,0.00,VWS V14.01,2013-02-07 17:18:00,
2013-02-07 09:23:00,46.8,17.0,23.56,WSW,248,8.1,8.1,30,0.00,,---,0.00,VWS V14.01,2013-02-07 17:23:00,
2013-02-07 09:28:00,47.5,16.8,23.56,SW,225,6.5,6.5,29,0.00,,---,0.00,VWS V14.01,2013-02-07 17:28:00,
2013-02-07 09:33:00,47.8,16.3,23.56,SW,225,9.8,10.1,28,0.00,,---,0.00,VWS V14.01,2013-02-07 17:33:00,
2013-02-07 09:38:00,48.2,14.9,23.56,WSW,248,7.8,11.2,26,0.00,,---,0.00,VWS V14.01,2013-02-07 17:38:00,
2013-02-07 09:43:00,48.4,13.3,23.56,SW,225,8.7,12.3,24,0.00,,---,0.00,VWS V14.01,2013-02-07 17:43:00,
2013-02-07 09:48:00,48.7,13.6,23.56,SW,225,11.0,11.0,24,0.00,,---,0.00,VWS V14.01,2013-02-07 17:48:00,
2013-02-07 09:54:00,48.9,13.7,23.56,WSW,248,9.4,9.8,24,0.00,,---,0.00,VWS V14.01,2013-02-07 17:54:00,
2013-02-07 09:59:00,49.5,14.2,23.56,WSW,248,10.3,10.3,24,0.00,,---,0.00,VWS V14.01,2013-02-07 17:59:00,
2013-02-07 10:04:00,49.6,14.3,23.56,WSW,248,7.2,10.7,24,0.00,,---,0.00,VWS V14.01,2013-02-07 18:04:00,
2013-02-07 10:09:00,49.6,14.3,23.56,WSW,248,5.8,10.3,24,0.00,,---,0.00,VWS V14.01,2013-02-07 18:09:00,
2013-02-07 10:14:00,49.5,11.2,23.56,SW,225,10.7,10.7,21,0.00,,---,0.00,VWS V14.01,2013-02-07 18:14:00,
2013-02-07 10:19:00,49.6,11.3,23.56,WSW,248,7.6,9.8,21,0.00,,---,0.00,VWS V14.01,2013-02-07 18:19:00,
2013-02-07 10:24:00,50.0,11.6,23.56,SW,225,3.8,7.4,21,0.00,,---,0.00,VWS V14.01,2013-02-07 18:24:00,
2013-02-07 10:29:00,50.4,11.9,23.56,WSW,248,6.0,12.8,21,0.00,,---,0.00,VWS V14.01,2013-02-07 18:29:00,
2013-02-07 10:34:00,50.9,15.4,23.56,WSW,248,10.5,11.9,24,0.00,,---,0.00,VWS V14.01,2013-02-07 18:34:00,
2013-02-07 10:39:00,51.3,15.7,23.56,SW,225,9.0,9.0,24,0.00,,---,0.00,VWS V14.01,2013-02-07 18:39:00,
2013-02-07 10:44:00,51.6,13.0,23.56,SW,225,7.4,13.0,21,0.00,,---,0.00,VWS V14.01,2013-02-07 18:44:00,
2013-02-07 10:49:00,51.6,13.0,23.56,WSW,248,10.1,11.0,21,0.00,,---,0.00,VWS V14.01,2013-02-07 18:49:00,
2013-02-07 10:54:00,52.2,13.4,23.56,WSW,248,7.4,7.8,21,0.00,,---,0.00,VWS V14.01,2013-02-07 18:54:00,
2013-02-07 10:59:00,52.0,13.3,23.56,West,270,13.0,14.1,21,0.00,,---,0.00,VWS V14.01,2013-02-07 18:59:00,
2013-02-07 11:04:00,52.0,13.3,23.56,SSW,202,11.0,12.5,21,0.00,,---,0.00,VWS V14.01,2013-02-07 19:04:00,
2013-02-07 11:09:00,52.7,13.9,23.56,WSW,248,10.7,10.7,21,0.00,,---,0.00,VWS V14.01,2013-02-07 19:09:00,
2013-02-07 11:14:00,53.1,14.2,23.56,SSW,202,7.8,11.9,21,0.00,,---,0.00,VWS V14.01,2013-02-07 19:14:00,
2013-02-07 11:19:00,53.1,14.2,23.56,SSW,202,4.3,10.3,21,0.00,,---,0.00,VWS V14.01,2013-02-07 19:19:00,
2013-02-07 11:24:00,53.4,14.5,23.56,WSW,248,6.5,9.2,21,0.00,,---,0.00,VWS V14.01,2013-02-07 19:24:00,
2013-02-07 11:29:00,53.4,14.5,23.56,WSW,248,5.8,8.5,21,0.00,,---,0.00,VWS V14.01,2013-02-07 19:29:00,
2013-02-07 11:34:00,52.7,13.9,23.56,SSW,202,11.0,11.0,21,0.00,,---,0.00,VWS V14.01,2013-02-07 19:34:00,
2013-02-07 11:39:00,52.7,13.9,23.56,SSW,202,15.4,17.5,21,0.00,,---,0.00,VWS V14.01,2013-02-07 19:39:00,
2013-02-07 11:44:00,52.5,13.7,23.56,SW,225,6.0,10.5,21,0.00,,---,0.00,VWS V14.01,2013-02-07 19:44:00,
2013-02-07 11:49:00,52.7,13.9,23.53,SSW,202,13.0,13.6,21,0.00,,---,0.00,VWS V14.01,2013-02-07 19:49:00,
2013-02-07 11:54:00,52.3,13.6,23.53,WSW,248,13.9,17.5,21,0.00,,---,0.00,VWS V14.01,2013-02-07 19:54:00,
2013-02-07 11:59:00,52.5,13.7,23.53,SSW,202,11.9,12.5,21,0.00,,---,0.00,VWS V14.01,2013-02-07 19:59:00,
2013-02-07 12:04:00,52.7,13.9,23.53,WSW,248,14.3,14.3,21,0.00,,---,0.00,VWS V14.01,2013-02-07 20:04:00,
2013-02-07 12:09:00,53.1,14.2,23.53,SSW,202,6.3,13.9,21,0.00,,---,0.00,VWS V14.01,2013-02-07 20:09:00,
2013-02-07 12:15:00,52.7,13.9,23.53,SSE,158,13.4,13.4,21,0.00,,---,0.00,VWS V14.01,2013-02-07 20:15:00,
2013-02-07 12:20:00,52.2,13.4,23.53,WSW,248,11.4,14.5,21,0.00,,---,0.00,VWS V14.01,2013-02-07 20:20:00,
2013-02-07 12:25:00,51.8,13.1,23.53,West,270,12.3,17.0,21,0.00,,---,0.00,VWS V14.01,2013-02-07 20:25:00,
2013-02-07 12:30:00,52.0,13.3,23.53,West,270,14.3,15.2,21,0.00,,---,0.00,VWS V14.01,2013-02-07 20:30:00,
2013-02-07 12:35:00,52.5,13.7,23.50,SW,225,17.7,17.9,21,0.00,,---,0.00,VWS V14.01,2013-02-07 20:35:00,
2013-02-07 12:40:00,52.5,13.7,23.50,WSW,248,14.8,14.8,21,0.00,,---,0.00,VWS V14.01,2013-02-07 20:40:00,
2013-02-07 12:45:00,52.2,13.4,23.50,WSW,248,9.2,14.1,21,0.00,,---,0.00,VWS V14.01,2013-02-07 20:45:00,
2013-02-07 12:50:00,52.0,13.3,23.50,SSW,202,10.7,13.6,21,0.00,,---,0.00,VWS V14.01,2013-02-07 20:50:00,
2013-02-07 12:55:00,51.8,13.1,23.50,SSW,202,14.8,20.1,21,0.00,,---,0.00,VWS V14.01,2013-02-07 20:55:00,
2013-02-07 13:00:00,51.4,12.8,23.50,SW,225,12.5,17.0,21,0.00,,---,0.00,VWS V14.01,2013-02-07 21:00:00,
2013-02-07 13:05:00,51.3,12.7,23.50,SSW,202,13.0,15.4,21,0.00,,---,0.00,VWS V14.01,2013-02-07 21:05:00,
2013-02-07 13:10:00,51.4,12.8,23.50,WSW,248,6.0,15.7,21,0.00,,---,0.00,VWS V14.01,2013-02-07 21:10:00,
2013-02-07 13:15:00,51.4,15.9,23.50,SSW,202,8.5,15.2,24,0.00,,---,0.00,VWS V14.01,2013-02-07 21:15:00,
2013-02-07 13:21:00,51.1,12.5,23.50,SSW,202,8.5,21.5,21,0.00,,---,0.00,VWS V14.01,2013-02-07 21:21:00,
2013-02-07 13:26:00,50.7,12.2,23.50,WSW,248,14.3,15.4,21,0.00,,---,0.00,VWS V14.01,2013-02-07 21:26:00,
2013-02-07 13:31:00,50.2,11.8,23.50,WSW,248,17.7,17.9,21,0.00,,---,0.00,VWS V14.01,2013-02-07 21:31:00,
2013-02-07 13:36:00,50.4,11.9,23.50,SW,225,11.0,12.3,21,0.00,,---,0.00,VWS V14.01,2013-02-07 21:36:00,
2013-02-07 13:41:00,50.2,11.8,23.50,WSW,248,15.4,17.5,21,0.00,,---,0.00,VWS V14.01,2013-02-07 21:41:00,
2013-02-07 13:46:00,49.8,11.5,23.50,WSW,248,12.3,19.0,21,0.00,,---,0.00,VWS V14.01,2013-02-07 21:46:00,
2013-02-07 13:51:00,50.0,11.6,23.50,SW,225,14.1,19.9,21,0.00,,---,0.00,VWS V14.01,2013-02-07 21:51:00,
2013-02-07 13:56:00,49.8,11.5,23.50,SW,225,8.7,13.9,21,0.00,,---,0.00,VWS V14.01,2013-02-07 21:56:00,
2013-02-07 14:01:00,49.8,11.5,23.50,WSW,248,18.1,18.1,21,0.00,,---,0.00,VWS V14.01,2013-02-07 22:01:00,
2013-02-07 14:07:00,49.5,14.2,23.50,WSW,248,10.1,17.5,24,0.00,,---,0.00,VWS V14.01,2013-02-07 22:07:00,
2013-02-07 14:12:00,49.5,14.2,23.50,WSW,248,11.9,14.8,24,0.00,,---,0.00,VWS V14.01,2013-02-07 22:12:00,
2013-02-07 14:17:00,49.5,14.2,23.50,West,270,9.8,15.2,24,0.00,,---,0.00,VWS V14.01,2013-02-07 22:17:00,
2013-02-07 14:22:00,48.7,15.4,23.50,WSW,248,12.3,15.2,26,0.00,,---,0.00,VWS V14.01,2013-02-07 22:22:00,
2013-02-07 14:27:00,48.6,16.1,23.50,WSW,248,12.3,12.3,27,0.00,,---,0.00,VWS V14.01,2013-02-07 22:27:00,
2013-02-07 14:32:00,48.4,16.0,23.50,WSW,248,10.7,19.7,27,0.00,,---,0.00,VWS V14.01,2013-02-07 22:32:00,
2013-02-07 14:37:00,48.6,17.0,23.48,SW,225,10.3,12.8,28,0.00,,---,0.00,VWS V14.01,2013-02-07 22:37:00,
2013-02-07 14:42:00,48.6,17.0,23.48,WSW,248,7.2,12.3,28,0.00,,---,0.00,VWS V14.01,2013-02-07 22:42:00,
2013-02-07 14:47:00,48.6,17.0,23.48,SW,225,13.0,19.7,28,0.00,,---,0.00,VWS V14.01,2013-02-07 22:47:00,
2013-02-07 14:53:00,48.4,16.8,23.48,WSW,248,10.7,16.6,28,0.00,,---,0.00,VWS V14.01,2013-02-07 22:53:00,
2013-02-07 14:58:00,48.0,16.5,23.48,WSW,248,11.0,11.0,28,0.00,,---,0.00,VWS V14.01,2013-02-07 22:58:00,
2013-02-07 15:03:00,48.4,16.8,23.48,WSW,248,13.0,13.6,28,0.00,,---,0.00,VWS V14.01,2013-02-07 23:03:00,
2013-02-07 15:08:00,48.0,16.5,23.48,WSW,248,17.0,17.0,28,0.00,,---,0.00,VWS V14.01,2013-02-07 23:08:00,
2013-02-07 15:13:00,47.5,16.0,23.48,WSW,248,15.9,17.7,28,0.00,,---,0.00,VWS V14.01,2013-02-07 23:13:00,
2013-02-07 15:18:00,47.1,15.7,23.48,SSW,202,17.0,19.7,28,0.00,,---,0.00,VWS V14.01,2013-02-07 23:18:00,
2013-02-07 15:24:00,46.6,15.2,23.48,WSW,248,8.1,13.2,28,0.00,,---,0.00,VWS V14.01,2013-02-07 23:24:00,
2013-02-07 15:29:00,46.6,15.2,23.48,SSW,202,15.4,15.4,28,0.00,,---,0.00,VWS V14.01,2013-02-07 23:29:00,
2013-02-07 15:35:00,46.6,16.0,23.48,SSW,202,17.7,17.7,29,0.00,,---,0.00,VWS V14.01,2013-02-07 23:35:00,
2013-02-07 15:40:00,46.4,15.9,23.48,SSW,202,11.2,12.1,29,0.00,,---,0.00,VWS V14.01,2013-02-07 23:40:00,
2013-02-07 15:46:00,46.2,16.5,23.48,SSW,202,8.7,13.0,30,0.00,,---,0.00,VWS V14.01,2013-02-07 23:46:00,
2013-02-07 15:51:00,46.4,16.7,23.48,SSE,158,10.3,13.9,30,0.00,,---,0.00,VWS V14.01,2013-02-07 23:51:00,
2013-02-07 15:56:00,46.4,15.9,23.48,SW,225,10.7,10.7,29,0.00,,---,0.00,VWS V14.01,2013-02-07 23:56:00,
2013-02-07 16:01:00,46.6,16.0,23.48,SSW,202,8.5,13.2,29,0.00,,---,0.00,VWS V14.01,2013-02-08 00:01:00,
2013-02-07 16:06:00,46.6,16.8,23.48,SW,225,12.8,12.8,30,0.00,,---,0.00,VWS V14.01,2013-02-08 00:06:00,
2013-02-07 16:11:00,46.4,16.7,23.48,WSW,248,10.3,11.0,30,0.00,,---,0.00,VWS V14.01,2013-02-08 00:11:00,
2013-02-07 16:17:00,46.0,17.1,23.48,SSW,202,16.3,16.3,31,0.00,,---,0.00,VWS V14.01,2013-02-08 00:17:00,
2013-02-07 16:22:00,45.9,17.0,23.45,South,180,11.9,15.2,31,0.00,,---,0.00,VWS V14.01,2013-02-08 00:22:00,
2013-02-07 16:28:00,45.5,15.9,23.45,SW,225,15.4,15.4,30,0.00,,---,0.00,VWS V14.01,2013-02-08 00:28:00,
2013-02-07 16:33:00,45.1,15.6,23.45,SSW,202,17.0,17.0,30,0.00,,---,0.00,VWS V14.01,2013-02-08 00:33:00,
2013-02-07 16:38:00,44.8,15.3,23.45,SW,225,10.7,16.8,30,0.00,,---,0.00,VWS V14.01,2013-02-08 00:38:00,
2013-02-07 16:43:00,44.2,15.5,23.45,South,180,13.0,19.5,31,0.00,,---,0.00,VWS V14.01,2013-02-08 00:43:00,
2013-02-07 16:49:00,43.5,14.9,23.45,SSW,202,8.7,15.4,31,0.00,,---,0.00,VWS V14.01,2013-02-08 00:49:00,
2013-02-07 16:54:00,43.0,15.2,23.45,WSW,248,6.5,16.6,32,0.00,,---,0.00,VWS V14.01,2013-02-08 00:54:00,
2013-02-07 17:00:00,42.1,15.1,23.45,SSW,202,13.0,19.2,33,0.00,,---,0.00,VWS V14.01,2013-02-08 01:00:00,
2013-02-07 17:06:00,41.5,13.9,23.45,SSW,202,15.4,19.7,32,0.00,,---,0.00,VWS V14.01,2013-02-08 01:06:00,
2013-02-07 17:11:00,40.8,13.3,23.45,SW,225,8.7,12.1,32,0.00,,---,0.00,VWS V14.01,2013-02-08 01:11:00,
2013-02-07 17:17:00,40.3,12.1,23.45,SSW,202,10.5,12.1,31,0.00,,---,0.00,VWS V14.01,2013-02-08 01:17:00,
2013-02-07 17:22:00,39.7,11.6,23.45,SSW,202,10.5,10.7,31,0.00,,---,0.00,VWS V14.01,2013-02-08 01:22:00,
2013-02-07 17:27:00,39.2,11.8,23.45,WSW,248,7.6,15.4,32,0.00,,---,0.00,VWS V14.01,2013-02-08 01:27:00,
2013-02-07 17:32:00,38.7,11.4,23.45,WSW,248,13.0,13.0,32,0.00,,---,0.00,VWS V14.01,2013-02-08 01:32:00,
2013-02-07 17:37:00,38.3,11.7,23.45,SW,225,6.0,15.4,33,0.00,,---,0.00,VWS V14.01,2013-02-08 01:37:00,
2013-02-07 17:42:00,37.9,12.1,23.45,WSW,248,8.5,12.3,34,0.00,,---,0.00,VWS V14.01,2013-02-08 01:42:00,
2013-02-07 17:48:00,37.2,15.1,23.45,SW,225,5.8,10.5,40,0.00,,---,0.00,VWS V14.01,2013-02-08 01:48:00,
2013-02-07 17:53:00,36.9,15.9,23.45,SW,225,11.0,11.0,42,0.00,,---,0.00,VWS V14.01,2013-02-08 01:53:00,
2013-02-07 17:59:00,36.1,17.9,23.45,WSW,248,5.4,11.0,47,0.00,,---,0.00,VWS V14.01,2013-02-08 01:59:00,
2013-02-07 18:04:00,35.6,18.8,23.45,SW,225,4.9,13.0,50,0.00,,---,0.00,VWS V14.01,2013-02-08 02:04:00,
2013-02-07 18:09:00,35.4,19.1,23.45,WSW,248,9.8,9.8,51,0.00,,---,0.00,VWS V14.01,2013-02-08 02:09:00,
2013-02-07 18:14:00,34.9,18.6,23.45,WSW,248,7.6,8.7,51,0.00,,---,0.00,VWS V14.01,2013-02-08 02:14:00,
2013-02-07 18:20:00,34.5,18.7,23.45,SW,225,5.6,7.8,52,0.00,,---,0.00,VWS V14.01,2013-02-08 02:20:00,
2013-02-07 18:25:00,34.2,18.4,23.45,SSW,202,5.6,5.6,52,0.00,,---,0.00,VWS V14.01,2013-02-08 02:25:00,
2013-02-07 18:30:00,34.0,18.7,23.45,SSW,202,4.3,7.2,53,0.00,,---,0.00,VWS V14.01,2013-02-08 02:30:00,
2013-02-07 18:35:00,33.8,18.0,23.45,West,270,6.3,6.3,52,0.00,,---,0.00,VWS V14.01,2013-02-08 02:35:00,
2013-02-07 18:41:00,33.6,18.3,23.45,WSW,248,3.4,8.1,53,0.00,,---,0.00,VWS V14.01,2013-02-08 02:41:00,
2013-02-07 18:46:00,33.4,17.7,23.45,SSW,202,8.7,8.7,52,0.00,,---,0.00,VWS V14.01,2013-02-08 02:46:00,
2013-02-07 18:51:00,33.3,17.5,23.45,SSW,202,4.9,7.8,52,0.00,,---,0.00,VWS V14.01,2013-02-08 02:51:00,
2013-02-07 18:56:00,33.1,18.3,23.45,SSW,202,4.3,6.0,54,0.00,,---,0.00,VWS V14.01,2013-02-08 02:56:00,
2013-02-07 19:02:00,33.1,18.7,23.45,WSW,248,2.9,2.9,55,0.00,,---,0.00,VWS V14.01,2013-02-08 03:02:00,
2013-02-07 19:07:00,32.7,17.5,23.42,WSW,248,2.5,2.5,53,0.00,,---,0.00,VWS V14.01,2013-02-08 03:07:00,
2013-02-07 19:12:00,32.4,16.7,23.42,WNW,292,1.3,1.3,52,0.00,,---,0.00,VWS V14.01,2013-02-08 03:12:00,
2013-02-07 19:17:00,31.8,16.2,23.42,WSW,248,0.0,2.0,52,0.00,,---,0.00,VWS V14.01,2013-02-08 03:17:00,
2013-02-07 19:22:00,31.1,16.0,23.42,WSW,248,0.9,1.1,53,0.00,,---,0.00,VWS V14.01,2013-02-08 03:22:00,
2013-02-07 19:27:00,30.9,15.8,23.42,NE,45,1.3,2.0,53,0.00,,---,0.00,VWS V14.01,2013-02-08 03:27:00,
2013-02-07 19:32:00,30.4,15.3,23.42,NNE,22,1.6,2.5,53,0.00,,---,0.00,VWS V14.01,2013-02-08 03:32:00,
2013-02-07 19:37:00,30.2,16.0,23.42,NNE,22,0.9,3.1,55,0.00,,---,0.00,VWS V14.01,2013-02-08 03:37:00,
2013-02-07 19:42:00,30.2,16.0,23.42,NNE,22,0.0,1.6,55,0.00,,---,0.00,VWS V14.01,2013-02-08 03:42:00,
2013-02-07 19:47:00,30.2,16.4,23.42,North,0,2.5,3.1,56,0.00,,---,0.00,VWS V14.01,2013-02-08 03:47:00,
2013-02-07 19:52:00,30.2,15.6,23.42,SW,225,0.0,2.7,54,0.00,,---,0.00,VWS V14.01,2013-02-08 03:52:00,
2013-02-07 19:57:00,30.2,15.6,23.42,SW,225,1.1,2.2,54,0.00,,---,0.00,VWS V14.01,2013-02-08 03:57:00,
2013-02-07 20:02:00,30.0,15.4,23.42,SSW,202,3.8,4.9,54,0.00,,---,0.00,VWS V14.01,2013-02-08 04:02:00,
2013-02-07 20:07:00,30.0,15.8,23.42,SW,225,5.8,6.3,55,0.00,,---,0.00,VWS V14.01,2013-02-08 04:07:00,
2013-02-07 20:12:00,30.0,15.8,23.42,WNW,292,3.4,3.4,55,0.00,,---,0.00,VWS V14.01,2013-02-08 04:12:00,
2013-02-07 20:17:00,30.0,16.6,23.42,SSW,202,3.1,3.6,57,0.00,,---,0.00,VWS V14.01,2013-02-08 04:17:00,
2013-02-07 20:22:00,30.0,16.2,23.39,WSW,248,2.7,2.7,56,0.00,,---,0.00,VWS V14.01,2013-02-08 04:22:00,
2013-02-07 20:27:00,29.5,15.3,23.39,SW,225,2.5,3.1,55,0.00,,---,0.00,VWS V14.01,2013-02-08 04:27:00,
2013-02-07 20:32:00,29.5,16.1,23.39,SW,225,3.4,6.3,57,0.00,,---,0.00,VWS V14.01,2013-02-08 04:32:00,
2013-02-07 20:37:00,29.5,16.9,23.39,SW,225,4.0,6.3,59,0.00,,---,0.00,VWS V14.01,2013-02-08 04:37:00,
2013-02-07 20:42:00,29.5,16.9,23.39,WSW,248,3.4,6.0,59,0.00,,---,0.00,VWS V14.01,2013-02-08 04:42:00,
2013-02-07 20:47:00,30.0,17.0,23.39,SW,225,7.8,11.0,58,0.00,,---,0.00,VWS V14.01,2013-02-08 04:47:00,
2013-02-07 20:52:00,30.2,16.8,23.39,WSW,248,16.8,16.8,57,0.00,,---,0.00,VWS V14.01,2013-02-08 04:52:00,
2013-02-07 20:57:00,30.4,16.6,23.39,WSW,248,9.8,12.3,56,0.00,,---,0.00,VWS V14.01,2013-02-08 04:57:00,
2013-02-07 21:00:00,30.4,16.2,23.39,SW,225,6.5,15.2,55,0.00,,---,0.00,VWS V14.01,2013-02-08 05:00:00,
2013-02-07 21:01:00,30.4,16.2,23.39,WSW,248,15.9,15.9,55,0.00,,---,0.00,VWS V14.01,2013-02-08 05:01:00,
2013-02-07 21:02:00,30.4,15.7,23.39,SW,225,13.2,15.9,54,0.00,,---,0.00,VWS V14.01,2013-02-08 05:02:00,
2013-02-07 21:07:00,30.4,16.2,23.36,SSW,202,14.8,17.2,55,0.00,,---,0.00,VWS V14.01,2013-02-08 05:07:00,
2013-02-07 21:12:00,30.4,15.7,23.36,SSW,202,13.0,15.2,54,0.00,,---,0.00,VWS V14.01,2013-02-08 05:12:00,
2013-02-07 21:17:00,30.7,13.4,23.36,SSW,202,16.8,16.8,48,0.00,,---,0.00,VWS V14.01,2013-02-08 05:17:00,
2013-02-07 21:22:00,31.1,11.8,23.36,WSW,248,11.4,12.1,44,0.00,,---,0.00,VWS V14.01,2013-02-08 05:22:00,
2013-02-07 21:27:00,31.6,11.2,23.36,SW,225,15.4,15.4,42,0.00,,---,0.00,VWS V14.01,2013-02-08 05:27:00,
2013-02-07 21:32:00,31.8,10.8,23.36,SW,225,13.2,19.9,41,0.00,,---,0.00,VWS V14.01,2013-02-08 05:32:00,
2013-02-07 21:37:00,31.6,11.2,23.36,WSW,248,15.9,16.6,42,0.00,,---,0.00,VWS V14.01,2013-02-08 05:37:00,
2013-02-07 21:42:00,31.6,10.6,23.36,SW,225,10.1,17.0,41,0.00,,---,0.00,VWS V14.01,2013-02-08 05:42:00,
2013-02-07 21:47:00,31.6,10.6,23.36,WSW,248,17.5,17.5,41,0.00,,---,0.00,VWS V14.01,2013-02-08 05:47:00,
2013-02-07 21:52:00,32.5,7.9,23.33,SSW,202,19.2,19.2,35,0.00,,---,0.00,VWS V14.01,2013-02-08 05:52:00,
2013-02-07 21:57:00,32.2,9.4,23.33,SSW,202,15.7,15.7,38,0.00,,---,0.00,VWS V14.01,2013-02-08 05:57:00,
2013-02-07 22:02:00,31.6,10.6,23.33,SSE,158,19.0,19.9,41,0.00,,---,0.00,VWS V14.01,2013-02-08 06:02:00,
2013-02-07 22:07:00,31.3,10.9,23.36,WSW,248,22.6,22.6,42,0.00,,---,0.00,VWS V14.01,2013-02-08 06:07:00,
2013-02-07 22:12:00,30.9,10.5,23.36,WSW,248,12.5,17.5,42,0.00,,---,0.00,VWS V14.01,2013-02-08 06:12:00,
2013-02-07 22:17:00,30.7,9.8,23.36,WSW,248,16.6,17.2,41,0.00,,---,0.00,VWS V14.01,2013-02-08 06:17:00,
2013-02-07 22:22:00,30.7,9.8,23.36,SW,225,14.8,17.5,41,0.00,,---,0.00,VWS V14.01,2013-02-08 06:22:00,
2013-02-07 22:27:00,30.6,9.7,23.36,WSW,248,15.4,16.3,41,0.00,,---,0.00,VWS V14.01,2013-02-08 06:27:00,
2013-02-07 22:31:00,30.2,10.4,23.36,West,270,13.9,14.8,43,0.00,,---,0.00,VWS V14.01,2013-02-08 06:31:00,
2013-02-07 22:36:00,29.8,12.1,23.36,SSW,202,15.4,15.4,47,0.00,,---,0.00,VWS V14.01,2013-02-08 06:36:00,
2013-02-07 22:41:00,29.3,13.0,23.36,WSW,248,12.5,23.3,50,0.00,,---,0.00,VWS V14.01,2013-02-08 06:41:00,
2013-02-07 22:46:00,28.8,14.6,23.36,WSW,248,23.0,23.0,55,0.00,,---,0.00,VWS V14.01,2013-02-08 06:46:00,
2013-02-07 22:51:00,28.2,17.3,23.36,SW,225,17.2,22.6,63,0.00,,---,0.00,VWS V14.01,2013-02-08 06:51:00,
2013-02-07 22:56:00,27.9,18.0,23.36,WSW,248,17.5,19.0,66,0.00,,---,0.00,VWS V14.01,2013-02-08 06:56:00,
2013-02-07 23:01:00,27.9,20.0,23.36,SSW,202,13.0,23.5,72,0.00,,---,0.00,VWS V14.01,2013-02-08 07:01:00,
2013-02-07 23:06:00,27.7,21.4,23.33,WSW,248,20.1,26.4,77,0.00,,---,0.00,VWS V14.01,2013-02-08 07:06:00,
2013-02-07 23:11:00,27.7,21.4,23.33,WSW,248,25.5,28.6,77,0.00,,---,0.00,VWS V14.01,2013-02-08 07:11:00,
2013-02-07 23:16:00,27.5,21.2,23.33,SSW,202,27.5,27.5,77,0.00,,---,0.00,VWS V14.01,2013-02-08 07:16:00,
2013-02-07 23:21:00,27.5,20.3,23.36,WSW,248,24.2,24.2,74,0.00,,---,0.00,VWS V14.01,2013-02-08 07:21:00,
2013-02-07 23:26:00,27.5,20.0,23.36,WSW,248,22.2,26.9,73,0.00,,---,0.00,VWS V14.01,2013-02-08 07:26:00,
2013-02-07 23:31:00,27.5,20.3,23.36,SSW,202,21.9,21.9,74,0.00,,---,0.00,VWS V14.01,2013-02-08 07:31:00,
2013-02-07 23:36:00,27.5,20.3,23.33,WSW,248,23.5,27.5,74,0.00,,---,0.00,VWS V14.01,2013-02-08 07:36:00,
2013-02-07 23:41:00,27.3,20.1,23.33,WSW,248,16.8,25.3,74,0.00,,---,0.00,VWS V14.01,2013-02-08 07:41:00,
2013-02-07 23:46:00,27.1,20.0,23.33,SW,225,17.5,22.8,74,0.00,,---,0.00,VWS V14.01,2013-02-08 07:46:00,
2013-02-07 23:51:00,27.0,19.1,23.33,WSW,248,17.5,23.7,72,0.00,,---,0.00,VWS V14.01,2013-02-08 07:51:00,
2013-02-07 23:56:00,26.8,19.6,23.33,WSW,248,18.1,19.9,74,0.00,,---,0.00,VWS V14.01,2013-02-08 07:56:00,